sensor_id;sensor_type;location;lat;lon;timestamp;temperature;humidity
19025;DHT22;9645;51.448;6.260;2022-07-22T00:01:55;16.20;99.90
19025;DHT22;9645;51.448;6.260;2022-07-22T00:04:22;16.10;99.90
19025;DHT22;9645;51.448;6.260;2022-07-22T00:06:49;16.20;99.90
19025;DHT22;9645;51.448;6.260;2022-07-22T00:09:16;16.10;99.90
19025;DHT22;9645;51.448;6.260;2022-07-22T00:11:43;16.10;99.90
19025;DHT22;9645;51.448;6.260;2022-07-22T00:14:10;16.10;99.90
19025;DHT22;9645;51.448;6.260;2022-07-22T00:16:38;16.10;99.90
19025;DHT22;9645;51.448;6.260;2022-07-22T00:19:07;16.20;99.90
19025;DHT22;9645;51.448;6.260;2022-07-22T00:21:34;16.20;99.90
19025;DHT22;9645;51.448;6.260;2022-07-22T00:24:01;16.20;99.90
19025;DHT22;9645;51.448;6.260;2022-07-22T00:26:29;16.20;99.90
19025;DHT22;9645;51.448;6.260;2022-07-22T00:28:56;16.20;99.90
19025;DHT22;9645;51.448;6.260;2022-07-22T00:31:23;16.10;99.90
19025;DHT22;9645;51.448;6.260;2022-07-22T00:33:50;16.20;99.90
19025;DHT22;9645;51.448;6.260;2022-07-22T00:36:18;16.10;99.90
19025;DHT22;9645;51.448;6.260;2022-07-22T00:38:45;16.10;99.90
19025;DHT22;9645;51.448;6.260;2022-07-22T00:41:12;16.10;99.90
19025;DHT22;9645;51.448;6.260;2022-07-22T00:43:53;16.10;99.90
19025;DHT22;9645;51.448;6.260;2022-07-22T00:46:20;16.10;99.90
19025;DHT22;9645;51.448;6.260;2022-07-22T00:48:47;16.10;99.90
19025;DHT22;9645;51.448;6.260;2022-07-22T00:51:14;16.10;99.90
19025;DHT22;9645;51.448;6.260;2022-07-22T00:53:44;16.10;99.90
19025;DHT22;9645;51.448;6.260;2022-07-22T00:56:12;16.00;99.90
19025;DHT22;9645;51.448;6.260;2022-07-22T00:58:39;16.00;99.90
19025;DHT22;9645;51.448;6.260;2022-07-22T01:01:06;16.00;99.90
19025;DHT22;9645;51.448;6.260;2022-07-22T01:03:33;16.00;99.90
19025;DHT22;9645;51.448;6.260;2022-07-22T01:06:00;16.00;99.90
19025;DHT22;9645;51.448;6.260;2022-07-22T01:08:27;16.00;99.90
19025;DHT22;9645;51.448;6.260;2022-07-22T01:11:06;16.00;99.90
19025;DHT22;9645;51.448;6.260;2022-07-22T01:13:33;16.10;99.90
19025;DHT22;9645;51.448;6.260;2022-07-22T01:16:00;16.00;99.90
19025;DHT22;9645;51.448;6.260;2022-07-22T01:18:27;16.00;99.90
19025;DHT22;9645;51.448;6.260;2022-07-22T01:20:56;16.10;99.90
19025;DHT22;9645;51.448;6.260;2022-07-22T01:23:23;16.10;99.90
19025;DHT22;9645;51.448;6.260;2022-07-22T01:25:50;16.00;99.90
19025;DHT22;9645;51.448;6.260;2022-07-22T01:28:18;16.00;99.90
19025;DHT22;9645;51.448;6.260;2022-07-22T01:30:45;16.00;99.90
19025;DHT22;9645;51.448;6.260;2022-07-22T01:33:12;16.00;99.90
19025;DHT22;9645;51.448;6.260;2022-07-22T01:35:39;16.00;99.90
19025;DHT22;9645;51.448;6.260;2022-07-22T01:38:08;16.00;99.90
19025;DHT22;9645;51.448;6.260;2022-07-22T01:40:35;16.00;99.90
19025;DHT22;9645;51.448;6.260;2022-07-22T01:43:02;16.00;99.90
19025;DHT22;9645;51.448;6.260;2022-07-22T01:45:29;16.00;99.90
19025;DHT22;9645;51.448;6.260;2022-07-22T01:47:56;16.00;99.90
19025;DHT22;9645;51.448;6.260;2022-07-22T01:50:24;16.10;99.90
19025;DHT22;9645;51.448;6.260;2022-07-22T01:52:51;16.10;99.90
19025;DHT22;9645;51.448;6.260;2022-07-22T01:55:19;16.10;99.90
19025;DHT22;9645;51.448;6.260;2022-07-22T01:57:46;16.00;99.90
19025;DHT22;9645;51.448;6.260;2022-07-22T02:00:14;16.00;99.90
19025;DHT22;9645;51.448;6.260;2022-07-22T02:02:41;16.00;99.90
19025;DHT22;9645;51.448;6.260;2022-07-22T02:05:09;16.00;99.90
19025;DHT22;9645;51.448;6.260;2022-07-22T02:07:36;16.00;99.90
19025;DHT22;9645;51.448;6.260;2022-07-22T02:10:04;16.10;99.90
19025;DHT22;9645;51.448;6.260;2022-07-22T02:12:33;16.10;99.90
19025;DHT22;9645;51.448;6.260;2022-07-22T02:15:00;16.10;99.90
19025;DHT22;9645;51.448;6.260;2022-07-22T02:17:27;16.10;99.90
19025;DHT22;9645;51.448;6.260;2022-07-22T02:19:54;16.10;99.90
19025;DHT22;9645;51.448;6.260;2022-07-22T02:22:21;16.10;99.90
19025;DHT22;9645;51.448;6.260;2022-07-22T02:24:48;16.10;99.90
19025;DHT22;9645;51.448;6.260;2022-07-22T02:27:15;16.10;99.90
19025;DHT22;9645;51.448;6.260;2022-07-22T02:29:44;16.10;99.90
19025;DHT22;9645;51.448;6.260;2022-07-22T02:32:11;16.10;99.90
19025;DHT22;9645;51.448;6.260;2022-07-22T02:34:38;16.00;99.90
19025;DHT22;9645;51.448;6.260;2022-07-22T02:37:05;16.10;99.90
19025;DHT22;9645;51.448;6.260;2022-07-22T02:39:32;16.00;99.90
19025;DHT22;9645;51.448;6.260;2022-07-22T02:41:59;16.00;99.90
19025;DHT22;9645;51.448;6.260;2022-07-22T02:44:26;16.00;99.90
19025;DHT22;9645;51.448;6.260;2022-07-22T02:46:54;16.00;99.90
19025;DHT22;9645;51.448;6.260;2022-07-22T02:49:21;15.90;99.90
19025;DHT22;9645;51.448;6.260;2022-07-22T02:51:48;15.90;99.90
19025;DHT22;9645;51.448;6.260;2022-07-22T02:54:15;15.90;99.90
19025;DHT22;9645;51.448;6.260;2022-07-22T02:56:42;15.90;99.90
19025;DHT22;9645;51.448;6.260;2022-07-22T02:59:09;16.00;99.90
19025;DHT22;9645;51.448;6.260;2022-07-22T03:01:36;15.90;99.90
19025;DHT22;9645;51.448;6.260;2022-07-22T03:04:04;15.90;99.90
19025;DHT22;9645;51.448;6.260;2022-07-22T03:06:31;15.90;99.90
19025;DHT22;9645;51.448;6.260;2022-07-22T03:08:58;15.90;99.90
19025;DHT22;9645;51.448;6.260;2022-07-22T03:11:25;15.80;99.90
19025;DHT22;9645;51.448;6.260;2022-07-22T03:13:52;15.80;99.90
19025;DHT22;9645;51.448;6.260;2022-07-22T03:16:19;15.70;99.90
19025;DHT22;9645;51.448;6.260;2022-07-22T03:18:46;15.70;99.90
19025;DHT22;9645;51.448;6.260;2022-07-22T03:21:15;15.60;99.90
19025;DHT22;9645;51.448;6.260;2022-07-22T03:23:42;15.60;99.90
19025;DHT22;9645;51.448;6.260;2022-07-22T03:26:09;15.60;99.90
19025;DHT22;9645;51.448;6.260;2022-07-22T03:28:36;15.60;99.90
19025;DHT22;9645;51.448;6.260;2022-07-22T03:31:03;15.60;99.90
19025;DHT22;9645;51.448;6.260;2022-07-22T03:33:30;15.60;99.90
19025;DHT22;9645;51.448;6.260;2022-07-22T03:35:57;15.60;99.90
19025;DHT22;9645;51.448;6.260;2022-07-22T03:38:25;15.50;99.90
19025;DHT22;9645;51.448;6.260;2022-07-22T03:40:53;15.50;99.90
19025;DHT22;9645;51.448;6.260;2022-07-22T03:43:21;15.40;99.90
19025;DHT22;9645;51.448;6.260;2022-07-22T03:45:48;15.40;99.90
19025;DHT22;9645;51.448;6.260;2022-07-22T03:48:15;15.40;99.90
19025;DHT22;9645;51.448;6.260;2022-07-22T03:50:42;15.40;99.90
19025;DHT22;9645;51.448;6.260;2022-07-22T03:53:09;15.40;99.90
19025;DHT22;9645;51.448;6.260;2022-07-22T03:55:37;15.40;99.90
19025;DHT22;9645;51.448;6.260;2022-07-22T03:58:04;15.30;99.90
19025;DHT22;9645;51.448;6.260;2022-07-22T04:00:32;15.30;99.90
19025;DHT22;9645;51.448;6.260;2022-07-22T04:02:59;15.30;99.90
19025;DHT22;9645;51.448;6.260;2022-07-22T04:05:26;15.30;99.90
19025;DHT22;9645;51.448;6.260;2022-07-22T04:07:53;15.30;99.90
19025;DHT22;9645;51.448;6.260;2022-07-22T04:10:20;15.30;99.90
19025;DHT22;9645;51.448;6.260;2022-07-22T04:12:48;15.30;99.90
19025;DHT22;9645;51.448;6.260;2022-07-22T04:15:15;15.30;99.90
19025;DHT22;9645;51.448;6.260;2022-07-22T04:17:42;15.30;99.90
19025;DHT22;9645;51.448;6.260;2022-07-22T04:20:10;15.30;99.90
19025;DHT22;9645;51.448;6.260;2022-07-22T04:22:37;15.40;99.90
19025;DHT22;9645;51.448;6.260;2022-07-22T04:25:04;15.40;99.90
19025;DHT22;9645;51.448;6.260;2022-07-22T04:27:32;15.40;99.90
19025;DHT22;9645;51.448;6.260;2022-07-22T04:30:00;15.40;99.90
19025;DHT22;9645;51.448;6.260;2022-07-22T04:32:27;15.50;99.90
19025;DHT22;9645;51.448;6.260;2022-07-22T04:34:54;15.50;99.90
19025;DHT22;9645;51.448;6.260;2022-07-22T04:37:21;15.60;99.90
19025;DHT22;9645;51.448;6.260;2022-07-22T04:39:48;15.60;99.90
19025;DHT22;9645;51.448;6.260;2022-07-22T04:42:15;15.70;99.90
19025;DHT22;9645;51.448;6.260;2022-07-22T04:44:42;15.80;99.90
19025;DHT22;9645;51.448;6.260;2022-07-22T04:47:11;15.80;99.90
19025;DHT22;9645;51.448;6.260;2022-07-22T04:49:39;15.90;99.90
19025;DHT22;9645;51.448;6.260;2022-07-22T04:52:06;15.90;99.90
19025;DHT22;9645;51.448;6.260;2022-07-22T04:54:33;16.00;99.90
19025;DHT22;9645;51.448;6.260;2022-07-22T04:57:00;16.00;99.90
19025;DHT22;9645;51.448;6.260;2022-07-22T04:59:27;16.10;99.90
19025;DHT22;9645;51.448;6.260;2022-07-22T05:01:54;16.10;99.90
19025;DHT22;9645;51.448;6.260;2022-07-22T05:04:22;16.20;99.90
19025;DHT22;9645;51.448;6.260;2022-07-22T05:06:49;16.30;99.90
19025;DHT22;9645;51.448;6.260;2022-07-22T05:09:16;16.30;99.90
19025;DHT22;9645;51.448;6.260;2022-07-22T05:11:43;16.20;99.90
19025;DHT22;9645;51.448;6.260;2022-07-22T05:14:10;16.30;99.90
19025;DHT22;9645;51.448;6.260;2022-07-22T05:16:38;16.20;99.90
19025;DHT22;9645;51.448;6.260;2022-07-22T05:19:05;16.20;99.90
19025;DHT22;9645;51.448;6.260;2022-07-22T05:21:33;16.20;99.90
19025;DHT22;9645;51.448;6.260;2022-07-22T05:24:00;16.20;99.90
19025;DHT22;9645;51.448;6.260;2022-07-22T05:26:27;16.30;99.90
19025;DHT22;9645;51.448;6.260;2022-07-22T05:28:56;16.40;99.90
19025;DHT22;9645;51.448;6.260;2022-07-22T05:31:23;16.50;99.90
19025;DHT22;9645;51.448;6.260;2022-07-22T05:33:50;16.50;99.90
19025;DHT22;9645;51.448;6.260;2022-07-22T05:36:17;16.70;99.90
19025;DHT22;9645;51.448;6.260;2022-07-22T05:38:46;16.90;99.90
19025;DHT22;9645;51.448;6.260;2022-07-22T05:41:13;17.00;99.90
19025;DHT22;9645;51.448;6.260;2022-07-22T05:43:40;17.10;99.90
19025;DHT22;9645;51.448;6.260;2022-07-22T05:46:07;17.20;99.90
19025;DHT22;9645;51.448;6.260;2022-07-22T05:48:34;17.30;99.90
19025;DHT22;9645;51.448;6.260;2022-07-22T05:51:01;17.40;99.90
19025;DHT22;9645;51.448;6.260;2022-07-22T05:53:28;17.50;99.90
19025;DHT22;9645;51.448;6.260;2022-07-22T05:55:56;17.50;99.90
19025;DHT22;9645;51.448;6.260;2022-07-22T05:58:23;17.50;99.90
19025;DHT22;9645;51.448;6.260;2022-07-22T06:00:50;17.60;99.90
19025;DHT22;9645;51.448;6.260;2022-07-22T06:03:17;17.70;99.90
19025;DHT22;9645;51.448;6.260;2022-07-22T06:05:45;17.70;99.90
19025;DHT22;9645;51.448;6.260;2022-07-22T06:08:12;17.80;99.90
19025;DHT22;9645;51.448;6.260;2022-07-22T06:10:39;17.80;99.90
19025;DHT22;9645;51.448;6.260;2022-07-22T06:13:07;17.90;99.90
19025;DHT22;9645;51.448;6.260;2022-07-22T06:15:34;17.90;99.90
19025;DHT22;9645;51.448;6.260;2022-07-22T06:18:01;18.00;99.90
19025;DHT22;9645;51.448;6.260;2022-07-22T06:20:28;17.90;99.90
19025;DHT22;9645;51.448;6.260;2022-07-22T06:22:55;18.00;99.90
19025;DHT22;9645;51.448;6.260;2022-07-22T06:25:22;18.20;99.90
19025;DHT22;9645;51.448;6.260;2022-07-22T06:27:49;18.30;99.90
19025;DHT22;9645;51.448;6.260;2022-07-22T06:30:18;18.30;99.90
19025;DHT22;9645;51.448;6.260;2022-07-22T06:32:46;18.30;99.90
19025;DHT22;9645;51.448;6.260;2022-07-22T06:35:13;18.20;99.90
19025;DHT22;9645;51.448;6.260;2022-07-22T06:37:40;18.10;99.90
19025;DHT22;9645;51.448;6.260;2022-07-22T06:40:08;18.20;99.90
19025;DHT22;9645;51.448;6.260;2022-07-22T06:42:35;18.20;99.90
19025;DHT22;9645;51.448;6.260;2022-07-22T06:45:02;18.20;99.90
19025;DHT22;9645;51.448;6.260;2022-07-22T06:47:31;18.30;99.90
19025;DHT22;9645;51.448;6.260;2022-07-22T06:50:00;18.50;99.90
19025;DHT22;9645;51.448;6.260;2022-07-22T06:52:28;18.70;99.90
19025;DHT22;9645;51.448;6.260;2022-07-22T06:54:55;18.90;99.90
19025;DHT22;9645;51.448;6.260;2022-07-22T06:57:22;19.00;99.90
19025;DHT22;9645;51.448;6.260;2022-07-22T06:59:49;19.00;99.90
19025;DHT22;9645;51.448;6.260;2022-07-22T07:02:16;19.00;99.90
19025;DHT22;9645;51.448;6.260;2022-07-22T07:04:45;19.10;99.90
19025;DHT22;9645;51.448;6.260;2022-07-22T07:07:12;19.30;99.90
19025;DHT22;9645;51.448;6.260;2022-07-22T07:09:39;19.50;99.90
19025;DHT22;9645;51.448;6.260;2022-07-22T07:12:06;19.70;99.90
19025;DHT22;9645;51.448;6.260;2022-07-22T07:14:33;19.90;99.90
19025;DHT22;9645;51.448;6.260;2022-07-22T07:17:00;19.70;99.90
19025;DHT22;9645;51.448;6.260;2022-07-22T07:19:27;19.70;99.90
19025;DHT22;9645;51.448;6.260;2022-07-22T07:21:56;19.70;99.90
19025;DHT22;9645;51.448;6.260;2022-07-22T07:24:23;19.70;99.90
19025;DHT22;9645;51.448;6.260;2022-07-22T07:26:50;19.70;99.90
19025;DHT22;9645;51.448;6.260;2022-07-22T07:29:17;19.80;99.90
19025;DHT22;9645;51.448;6.260;2022-07-22T07:31:44;19.80;99.90
19025;DHT22;9645;51.448;6.260;2022-07-22T07:34:11;19.90;99.90
19025;DHT22;9645;51.448;6.260;2022-07-22T07:36:38;19.90;99.90
19025;DHT22;9645;51.448;6.260;2022-07-22T07:39:06;20.00;99.90
19025;DHT22;9645;51.448;6.260;2022-07-22T07:41:33;19.90;99.90
19025;DHT22;9645;51.448;6.260;2022-07-22T07:44:00;20.00;99.90
19025;DHT22;9645;51.448;6.260;2022-07-22T07:46:27;20.20;99.90
19025;DHT22;9645;51.448;6.260;2022-07-22T07:48:54;20.20;99.90
19025;DHT22;9645;51.448;6.260;2022-07-22T07:51:21;20.30;99.90
19025;DHT22;9645;51.448;6.260;2022-07-22T07:53:48;20.30;99.90
19025;DHT22;9645;51.448;6.260;2022-07-22T07:56:17;20.00;99.90
19025;DHT22;9645;51.448;6.260;2022-07-22T07:58:44;20.00;99.90
19025;DHT22;9645;51.448;6.260;2022-07-22T08:01:11;20.10;99.90
19025;DHT22;9645;51.448;6.260;2022-07-22T08:03:38;20.10;99.90
19025;DHT22;9645;51.448;6.260;2022-07-22T08:06:05;20.20;99.90
19025;DHT22;9645;51.448;6.260;2022-07-22T08:08:33;20.40;99.90
19025;DHT22;9645;51.448;6.260;2022-07-22T08:11:00;20.40;99.90
19025;DHT22;9645;51.448;6.260;2022-07-22T08:13:28;20.50;99.90
19025;DHT22;9645;51.448;6.260;2022-07-22T08:15:55;20.60;99.90
19025;DHT22;9645;51.448;6.260;2022-07-22T08:18:22;20.60;99.90
19025;DHT22;9645;51.448;6.260;2022-07-22T08:20:50;20.60;99.90
19025;DHT22;9645;51.448;6.260;2022-07-22T08:26:04;20.80;99.90
19025;DHT22;9645;51.448;6.260;2022-07-22T08:28:32;21.00;99.90
19025;DHT22;9645;51.448;6.260;2022-07-22T08:30:59;21.00;99.90
19025;DHT22;9645;51.448;6.260;2022-07-22T08:33:26;21.20;99.90
19025;DHT22;9645;51.448;6.260;2022-07-22T08:35:53;21.40;99.90
19025;DHT22;9645;51.448;6.260;2022-07-22T08:38:20;21.50;99.90
19025;DHT22;9645;51.448;6.260;2022-07-22T08:40:48;21.60;99.90
19025;DHT22;9645;51.448;6.260;2022-07-22T08:43:15;21.70;99.90
19025;DHT22;9645;51.448;6.260;2022-07-22T08:45:44;21.30;99.90
19025;DHT22;9645;51.448;6.260;2022-07-22T08:48:12;21.30;99.90
19025;DHT22;9645;51.448;6.260;2022-07-22T08:50:39;21.30;99.90
19025;DHT22;9645;51.448;6.260;2022-07-22T08:53:09;21.40;99.90
19025;DHT22;9645;51.448;6.260;2022-07-22T08:55:41;21.60;99.90
19025;DHT22;9645;51.448;6.260;2022-07-22T08:58:08;21.70;99.90
19025;DHT22;9645;51.448;6.260;2022-07-22T09:00:35;21.60;99.90
19025;DHT22;9645;51.448;6.260;2022-07-22T09:03:17;21.40;99.90
19025;DHT22;9645;51.448;6.260;2022-07-22T09:05:44;21.70;99.90
19025;DHT22;9645;51.448;6.260;2022-07-22T09:08:11;21.90;99.90
19025;DHT22;9645;51.448;6.260;2022-07-22T09:10:38;21.90;99.90
19025;DHT22;9645;51.448;6.260;2022-07-22T09:13:07;22.10;99.90
19025;DHT22;9645;51.448;6.260;2022-07-22T09:15:35;22.30;99.90
19025;DHT22;9645;51.448;6.260;2022-07-22T09:18:04;22.30;99.90
19025;DHT22;9645;51.448;6.260;2022-07-22T09:20:33;22.50;99.90
19025;DHT22;9645;51.448;6.260;2022-07-22T09:23:01;22.60;99.90
19025;DHT22;9645;51.448;6.260;2022-07-22T09:25:29;22.70;99.90
19025;DHT22;9645;51.448;6.260;2022-07-22T09:28:10;22.80;99.90
19025;DHT22;9645;51.448;6.260;2022-07-22T09:30:39;22.60;99.90
19025;DHT22;9645;51.448;6.260;2022-07-22T09:33:08;22.70;99.90
19025;DHT22;9645;51.448;6.260;2022-07-22T09:35:36;22.90;99.90
19025;DHT22;9645;51.448;6.260;2022-07-22T09:38:06;23.20;99.90
19025;DHT22;9645;51.448;6.260;2022-07-22T09:40:35;23.40;99.90
19025;DHT22;9645;51.448;6.260;2022-07-22T09:43:04;23.60;99.90
19025;DHT22;9645;51.448;6.260;2022-07-22T09:45:34;23.60;99.90
19025;DHT22;9645;51.448;6.260;2022-07-22T09:48:02;23.60;99.90
19025;DHT22;9645;51.448;6.260;2022-07-22T09:50:30;23.60;99.90
19025;DHT22;9645;51.448;6.260;2022-07-22T09:53:00;24.10;99.90
19025;DHT22;9645;51.448;6.260;2022-07-22T09:55:29;24.10;99.90
19025;DHT22;9645;51.448;6.260;2022-07-22T09:57:57;23.60;99.90
19025;DHT22;9645;51.448;6.260;2022-07-22T10:00:26;23.60;99.90
19025;DHT22;9645;51.448;6.260;2022-07-22T10:02:55;23.90;99.90
19025;DHT22;9645;51.448;6.260;2022-07-22T10:05:25;24.40;99.90
19025;DHT22;9645;51.448;6.260;2022-07-22T10:07:53;24.90;99.90
19025;DHT22;9645;51.448;6.260;2022-07-22T10:10:23;24.90;99.90
19025;DHT22;9645;51.448;6.260;2022-07-22T10:12:52;25.30;99.90
19025;DHT22;9645;51.448;6.260;2022-07-22T10:15:20;25.90;99.90
19025;DHT22;9645;51.448;6.260;2022-07-22T10:17:49;26.50;99.90
19025;DHT22;9645;51.448;6.260;2022-07-22T10:20:18;27.00;99.90
19025;DHT22;9645;51.448;6.260;2022-07-22T10:22:50;27.30;99.90
19025;DHT22;9645;51.448;6.260;2022-07-22T10:25:18;27.70;99.90
19025;DHT22;9645;51.448;6.260;2022-07-22T10:27:50;27.90;99.90
19025;DHT22;9645;51.448;6.260;2022-07-22T10:30:20;28.00;99.90
19025;DHT22;9645;51.448;6.260;2022-07-22T10:33:06;28.30;99.90
19025;DHT22;9645;51.448;6.260;2022-07-22T10:35:34;27.60;99.90
19025;DHT22;9645;51.448;6.260;2022-07-22T10:38:04;26.90;99.90
19025;DHT22;9645;51.448;6.260;2022-07-22T10:40:45;26.10;99.90
19025;DHT22;9645;51.448;6.260;2022-07-22T10:43:14;26.00;99.90
19025;DHT22;9645;51.448;6.260;2022-07-22T10:45:45;25.30;99.90
19025;DHT22;9645;51.448;6.260;2022-07-22T10:48:14;24.80;99.90
19025;DHT22;9645;51.448;6.260;2022-07-22T10:50:51;24.70;99.90
19025;DHT22;9645;51.448;6.260;2022-07-22T10:53:23;24.70;99.90
19025;DHT22;9645;51.448;6.260;2022-07-22T10:56:02;24.60;99.90
19025;DHT22;9645;51.448;6.260;2022-07-22T10:58:53;24.80;99.90
19025;DHT22;9645;51.448;6.260;2022-07-22T11:01:23;25.00;99.90
19025;DHT22;9645;51.448;6.260;2022-07-22T11:03:50;25.30;99.90
19025;DHT22;9645;51.448;6.260;2022-07-22T11:06:26;26.00;99.90
19025;DHT22;9645;51.448;6.260;2022-07-22T11:08:55;26.80;99.90
19025;DHT22;9645;51.448;6.260;2022-07-22T11:11:37;27.30;99.90
19025;DHT22;9645;51.448;6.260;2022-07-22T11:14:13;26.70;99.90
19025;DHT22;9645;51.448;6.260;2022-07-22T11:16:40;27.20;99.90
19025;DHT22;9645;51.448;6.260;2022-07-22T11:19:07;27.20;99.90
19025;DHT22;9645;51.448;6.260;2022-07-22T11:21:35;27.50;99.90
19025;DHT22;9645;51.448;6.260;2022-07-22T11:24:04;27.50;99.90
19025;DHT22;9645;51.448;6.260;2022-07-22T11:26:39;27.80;99.70
19025;DHT22;9645;51.448;6.260;2022-07-22T11:29:07;28.00;98.30
19025;DHT22;9645;51.448;6.260;2022-07-22T11:31:36;28.50;99.80
19025;DHT22;9645;51.448;6.260;2022-07-22T11:34:08;27.90;99.40
19025;DHT22;9645;51.448;6.260;2022-07-22T11:36:38;27.40;99.90
19025;DHT22;9645;51.448;6.260;2022-07-22T11:39:06;27.20;99.90
19025;DHT22;9645;51.448;6.260;2022-07-22T11:41:34;26.90;99.80
19025;DHT22;9645;51.448;6.260;2022-07-22T11:44:02;26.30;99.90
19025;DHT22;9645;51.448;6.260;2022-07-22T11:46:36;26.10;99.90
19025;DHT22;9645;51.448;6.260;2022-07-22T11:49:04;25.80;99.90
19025;DHT22;9645;51.448;6.260;2022-07-22T11:51:32;25.80;99.90
19025;DHT22;9645;51.448;6.260;2022-07-22T11:54:00;25.90;99.90
19025;DHT22;9645;51.448;6.260;2022-07-22T11:56:27;25.80;99.90
19025;DHT22;9645;51.448;6.260;2022-07-22T11:58:55;25.70;99.90
19025;DHT22;9645;51.448;6.260;2022-07-22T12:01:24;25.70;99.90
19025;DHT22;9645;51.448;6.260;2022-07-22T12:03:54;25.70;99.90
19025;DHT22;9645;51.448;6.260;2022-07-22T12:06:23;26.10;99.90
19025;DHT22;9645;51.448;6.260;2022-07-22T12:08:53;26.50;99.90
19025;DHT22;9645;51.448;6.260;2022-07-22T12:11:22;27.00;99.90
19025;DHT22;9645;51.448;6.260;2022-07-22T12:13:52;27.30;99.90
19025;DHT22;9645;51.448;6.260;2022-07-22T12:16:24;27.50;99.30
19025;DHT22;9645;51.448;6.260;2022-07-22T12:18:58;27.80;98.40
19025;DHT22;9645;51.448;6.260;2022-07-22T12:21:26;28.20;98.60
19025;DHT22;9645;51.448;6.260;2022-07-22T12:23:56;28.50;98.00
19025;DHT22;9645;51.448;6.260;2022-07-22T12:26:41;28.50;97.20
19025;DHT22;9645;51.448;6.260;2022-07-22T12:29:20;28.30;99.20
19025;DHT22;9645;51.448;6.260;2022-07-22T12:31:49;28.40;98.90
19025;DHT22;9645;51.448;6.260;2022-07-22T12:34:32;28.30;96.90
19025;DHT22;9645;51.448;6.260;2022-07-22T12:36:59;28.20;98.30
19025;DHT22;9645;51.448;6.260;2022-07-22T12:39:28;27.80;98.50
19025;DHT22;9645;51.448;6.260;2022-07-22T12:41:55;27.80;98.40
19025;DHT22;9645;51.448;6.260;2022-07-22T12:44:24;27.90;98.90
19025;DHT22;9645;51.448;6.260;2022-07-22T12:46:52;27.80;97.90
19025;DHT22;9645;51.448;6.260;2022-07-22T12:49:23;27.90;97.90
19025;DHT22;9645;51.448;6.260;2022-07-22T12:52:06;28.00;98.40
19025;DHT22;9645;51.448;6.260;2022-07-22T12:54:34;28.10;96.90
19025;DHT22;9645;51.448;6.260;2022-07-22T12:57:02;28.00;98.40
19025;DHT22;9645;51.448;6.260;2022-07-22T12:59:29;28.00;96.90
19025;DHT22;9645;51.448;6.260;2022-07-22T13:01:56;28.30;97.30
19025;DHT22;9645;51.448;6.260;2022-07-22T13:04:25;28.60;95.30
19025;DHT22;9645;51.448;6.260;2022-07-22T13:06:52;29.00;98.20
19025;DHT22;9645;51.448;6.260;2022-07-22T13:09:19;29.20;96.90
19025;DHT22;9645;51.448;6.260;2022-07-22T13:11:46;29.20;95.10
19025;DHT22;9645;51.448;6.260;2022-07-22T13:14:14;29.00;95.30
19025;DHT22;9645;51.448;6.260;2022-07-22T13:16:41;28.50;96.00
19025;DHT22;9645;51.448;6.260;2022-07-22T13:19:08;28.40;97.30
19025;DHT22;9645;51.448;6.260;2022-07-22T13:21:36;28.40;96.80
19025;DHT22;9645;51.448;6.260;2022-07-22T13:24:04;28.60;95.70
19025;DHT22;9645;51.448;6.260;2022-07-22T13:26:31;28.70;97.10
19025;DHT22;9645;51.448;6.260;2022-07-22T13:28:58;29.10;97.90
19025;DHT22;9645;51.448;6.260;2022-07-22T13:31:25;29.20;94.70
19025;DHT22;9645;51.448;6.260;2022-07-22T13:33:53;29.30;95.30
19025;DHT22;9645;51.448;6.260;2022-07-22T13:36:20;28.90;95.30
19025;DHT22;9645;51.448;6.260;2022-07-22T13:38:50;28.60;95.80
19025;DHT22;9645;51.448;6.260;2022-07-22T13:41:18;28.90;96.30
19025;DHT22;9645;51.448;6.260;2022-07-22T13:43:45;29.20;94.90
19025;DHT22;9645;51.448;6.260;2022-07-22T13:48:42;29.30;93.60
19025;DHT22;9645;51.448;6.260;2022-07-22T13:51:09;29.00;93.80
19025;DHT22;9645;51.448;6.260;2022-07-22T13:53:36;28.90;96.20
19025;DHT22;9645;51.448;6.260;2022-07-22T13:56:06;29.00;95.70
19025;DHT22;9645;51.448;6.260;2022-07-22T13:58:35;28.70;94.60
19025;DHT22;9645;51.448;6.260;2022-07-22T14:01:02;28.70;94.50
19025;DHT22;9645;51.448;6.260;2022-07-22T14:03:29;28.80;94.20
19025;DHT22;9645;51.448;6.260;2022-07-22T14:05:56;28.90;95.30
19025;DHT22;9645;51.448;6.260;2022-07-22T14:08:23;29.10;93.80
19025;DHT22;9645;51.448;6.260;2022-07-22T14:10:50;28.90;93.90
19025;DHT22;9645;51.448;6.260;2022-07-22T14:13:18;28.80;96.30
19025;DHT22;9645;51.448;6.260;2022-07-22T14:15:45;28.80;93.90
19025;DHT22;9645;51.448;6.260;2022-07-22T14:18:12;28.50;94.90
19025;DHT22;9645;51.448;6.260;2022-07-22T14:20:39;28.20;94.70
19025;DHT22;9645;51.448;6.260;2022-07-22T14:23:07;27.90;95.50
19025;DHT22;9645;51.448;6.260;2022-07-22T14:25:35;27.70;96.10
19025;DHT22;9645;51.448;6.260;2022-07-22T14:28:03;27.60;96.80
19025;DHT22;9645;51.448;6.260;2022-07-22T14:30:32;28.10;96.40
19025;DHT22;9645;51.448;6.260;2022-07-22T14:32:59;28.30;95.20
19025;DHT22;9645;51.448;6.260;2022-07-22T14:35:27;28.20;96.30
19025;DHT22;9645;51.448;6.260;2022-07-22T14:37:54;27.40;95.10
19025;DHT22;9645;51.448;6.260;2022-07-22T14:40:21;27.10;95.70
19025;DHT22;9645;51.448;6.260;2022-07-22T14:42:48;26.90;95.90
19025;DHT22;9645;51.448;6.260;2022-07-22T14:45:15;27.10;97.00
19025;DHT22;9645;51.448;6.260;2022-07-22T14:47:43;27.30;96.50
19025;DHT22;9645;51.448;6.260;2022-07-22T14:50:10;27.50;95.60
19025;DHT22;9645;51.448;6.260;2022-07-22T14:52:37;27.20;96.20
19025;DHT22;9645;51.448;6.260;2022-07-22T14:55:05;26.80;96.40
19025;DHT22;9645;51.448;6.260;2022-07-22T14:57:32;27.10;98.50
19025;DHT22;9645;51.448;6.260;2022-07-22T14:59:59;27.00;97.20
19025;DHT22;9645;51.448;6.260;2022-07-22T15:02:26;27.10;97.70
19025;DHT22;9645;51.448;6.260;2022-07-22T15:04:54;26.90;97.80
19025;DHT22;9645;51.448;6.260;2022-07-22T15:07:21;26.60;98.30
19025;DHT22;9645;51.448;6.260;2022-07-22T15:09:48;26.70;98.10
19025;DHT22;9645;51.448;6.260;2022-07-22T15:12:15;26.50;98.00
19025;DHT22;9645;51.448;6.260;2022-07-22T15:14:42;26.30;99.10
19025;DHT22;9645;51.448;6.260;2022-07-22T15:17:09;26.50;97.90
19025;DHT22;9645;51.448;6.260;2022-07-22T15:19:36;26.60;97.60
19025;DHT22;9645;51.448;6.260;2022-07-22T15:22:04;26.60;98.00
19025;DHT22;9645;51.448;6.260;2022-07-22T15:24:31;26.70;98.20
19025;DHT22;9645;51.448;6.260;2022-07-22T15:26:58;26.90;98.20
19025;DHT22;9645;51.448;6.260;2022-07-22T15:29:25;27.10;97.00
19025;DHT22;9645;51.448;6.260;2022-07-22T15:31:52;26.70;97.90
19025;DHT22;9645;51.448;6.260;2022-07-22T15:34:19;26.60;97.80
19025;DHT22;9645;51.448;6.260;2022-07-22T15:36:46;26.60;97.60
19025;DHT22;9645;51.448;6.260;2022-07-22T15:39:15;26.70;97.80
19025;DHT22;9645;51.448;6.260;2022-07-22T15:41:42;27.00;99.30
19025;DHT22;9645;51.448;6.260;2022-07-22T15:44:09;27.30;97.50
19025;DHT22;9645;51.448;6.260;2022-07-22T15:46:36;27.50;97.20
19025;DHT22;9645;51.448;6.260;2022-07-22T15:49:03;27.40;97.40
19025;DHT22;9645;51.448;6.260;2022-07-22T15:51:30;27.10;97.00
19025;DHT22;9645;51.448;6.260;2022-07-22T15:53:57;26.90;97.00
19025;DHT22;9645;51.448;6.260;2022-07-22T15:56:25;26.70;97.60